Nanaimo Airport
CYCD : now visible

Airfield :











YOU CAN JOIN US ON...

 
LOGIN :

Register | Disclaimer

   EN    FR    IT 

 









Legend :    VFR   Marginal VFR   IFR   Intensive IFR   Very Intensive IFR
Visi :
Ceiling :
>= 8 km
>= 3000ft
5 to 8 km
1000 to 3000 ft
1500m to 5 km
500 to 1000 ft
800 to 1500m
200 to 500 ft
< 800m
< 200 ft
Symbols :   Thunderstorms  Fog  Heavy snow  Heavy precipitations  Wind > 20 kt






- Airport Elevation : 93 ft
- IATA code : YCD


CYCD - Nanaimo

CURRENT METAR :
  • 090100Z 32008G17KT 300V020 30SM FEW055 FEW110 SCT250 22/08 A3019 RMK CU1AC1CI1 SLP225 DENSITY ALT 600FT

EXPIRED METARs :
  • 090000Z 34007G15KT 290V020 30SM FEW060 FEW110 SCT250 22/08 A3019 RMK CU2AC1CI2 AC TR SLP225 DENSITY ALT 700FT
  • 082300Z 03012KT 30SM SCT060 BKN250 23/09 A3019 RMK CU3CI2 SLP224 DENSITY ALT 700FT

TAF TAF CYCD
Valid from the 09 at 00:00 until the 09 at 04:00 UTC


082338Z 0900/0904 02012KT P6SM SCT060 BKN240
BECMG 0902/0904 35006KT RMK NXT FCST WILL BE ISSUED AT 091445Z
CZVR FIR / North America



MET'MAP, your aeronautical weather chart ! - Copyright ORBIFLY December 2007 - Disclaimer

ORBIFLY MET'MAP TEAM :

Programming & Development : Alexandra Zaïnal
Concept & original design : Baudouin d'Aumeries
Assistance for programming : Marc-Olivier Méhu
Technical & hardware support : Manuel Goepfert

Contact : metmap@orbifly.com




SOURCES & CREDITS :

   NOAA       Earth
Advisory